sensor_id;sensor_type;location;lat;lon;timestamp;pressure;altitude;pressure_sealevel;temperature;humidity
74881;BME280;63427;49.654;6.596;2024-01-15T00:29:50;98853.29;;;1.34;39.42
74881;BME280;63427;49.654;6.596;2024-01-15T00:32:16;98860.11;;;0.22;41.08
74881;BME280;63427;49.654;6.596;2024-01-15T00:34:41;98851.77;;;0.59;41.06
74881;BME280;63427;49.654;6.596;2024-01-15T00:37:06;98849.97;;;0.19;42.60
74881;BME280;63427;49.654;6.596;2024-01-15T00:39:31;98842.63;;;0.22;42.10
74881;BME280;63427;49.654;6.596;2024-01-15T00:41:57;98839.16;;;0.62;41.75
74881;BME280;63427;49.654;6.596;2024-01-15T00:44:23;98830.13;;;0.65;41.37
74881;BME280;63427;49.654;6.596;2024-01-15T00:46:48;98830.90;;;0.51;41.61
74881;BME280;63427;49.654;6.596;2024-01-15T00:49:14;98830.35;;;0.51;41.46
74881;BME280;63427;49.654;6.596;2024-01-15T00:51:39;98839.39;;;0.14;42.15
74881;BME280;63427;49.654;6.596;2024-01-15T00:54:05;98838.38;;;0.15;42.29
74881;BME280;63427;49.654;6.596;2024-01-15T00:56:30;98840.61;;;0.38;42.61
74881;BME280;63427;49.654;6.596;2024-01-15T01:01:21;98837.65;;;0.26;42.19
74881;BME280;63427;49.654;6.596;2024-01-15T01:03:46;98836.70;;;0.85;41.37
74881;BME280;63427;49.654;6.596;2024-01-15T01:06:11;98835.75;;;0.82;41.37
74881;BME280;63427;49.654;6.596;2024-01-15T01:08:39;98830.55;;;0.59;41.86
74881;BME280;63427;49.654;6.596;2024-01-15T01:11:03;98825.02;;;1.14;41.12
74881;BME280;63427;49.654;6.596;2024-01-15T01:13:28;98824.31;;;0.62;41.70
74881;BME280;63427;49.654;6.596;2024-01-15T01:15:54;98816.88;;;0.51;41.99
74881;BME280;63427;49.654;6.596;2024-01-15T01:18:20;98815.96;;;-0.11;43.05
74881;BME280;63427;49.654;6.596;2024-01-15T01:20:45;98818.29;;;0.00;43.15
74881;BME280;63427;49.654;6.596;2024-01-15T01:23:10;98812.90;;;0.00;42.83
74881;BME280;63427;49.654;6.596;2024-01-15T01:25:36;98811.21;;;0.58;42.18
74881;BME280;63427;49.654;6.596;2024-01-15T01:28:02;98811.79;;;0.41;42.59
74881;BME280;63427;49.654;6.596;2024-01-15T01:30:27;98816.83;;;0.27;42.80
74881;BME280;63427;49.654;6.596;2024-01-15T01:32:52;98809.49;;;0.24;42.99
74881;BME280;63427;49.654;6.596;2024-01-15T01:35:18;98800.61;;;0.70;41.91
74881;BME280;63427;49.654;6.596;2024-01-15T01:37:43;98797.59;;;0.22;42.63
74881;BME280;63427;49.654;6.596;2024-01-15T01:40:09;98797.71;;;0.71;42.19
74881;BME280;63427;49.654;6.596;2024-01-15T01:42:38;98799.03;;;0.80;42.04
74881;BME280;63427;49.654;6.596;2024-01-15T01:44:59;98793.46;;;1.16;41.38
74881;BME280;63427;49.654;6.596;2024-01-15T01:47:25;98795.33;;;0.36;42.59
74881;BME280;63427;49.654;6.596;2024-01-15T01:49:50;98798.22;;;-0.06;42.99
74881;BME280;63427;49.654;6.596;2024-01-15T01:52:16;98799.97;;;0.61;41.61
74881;BME280;63427;49.654;6.596;2024-01-15T01:54:41;98795.49;;;0.64;42.35
74881;BME280;63427;49.654;6.596;2024-01-15T01:57:07;98790.26;;;0.87;42.15
74881;BME280;63427;49.654;6.596;2024-01-15T01:59:33;98786.56;;;0.58;42.27
74881;BME280;63427;49.654;6.596;2024-01-15T02:01:58;98788.27;;;0.97;42.04
74881;BME280;63427;49.654;6.596;2024-01-15T02:04:24;98792.08;;;-0.34;43.66
74881;BME280;63427;49.654;6.596;2024-01-15T02:06:48;98788.54;;;0.55;43.06
74881;BME280;63427;49.654;6.596;2024-01-15T02:09:14;98796.89;;;0.26;43.26
74881;BME280;63427;49.654;6.596;2024-01-15T02:11:39;98787.81;;;0.14;44.00
74881;BME280;63427;49.654;6.596;2024-01-15T02:14:04;98780.85;;;0.70;42.92
74881;BME280;63427;49.654;6.596;2024-01-15T02:16:35;98780.54;;;1.03;42.61
74881;BME280;63427;49.654;6.596;2024-01-15T02:18:55;98782.60;;;1.13;41.92
74881;BME280;63427;49.654;6.596;2024-01-15T02:21:20;98780.43;;;1.30;41.63
74881;BME280;63427;49.654;6.596;2024-01-15T02:23:46;98776.47;;;0.91;41.58
74881;BME280;63427;49.654;6.596;2024-01-15T02:26:13;98780.02;;;1.14;42.20
74881;BME280;63427;49.654;6.596;2024-01-15T02:28:37;98773.00;;;0.81;42.36
74881;BME280;63427;49.654;6.596;2024-01-15T02:31:03;98761.23;;;0.84;42.02
74881;BME280;63427;49.654;6.596;2024-01-15T02:33:28;98761.84;;;0.69;42.86
74881;BME280;63427;49.654;6.596;2024-01-15T02:35:54;98780.72;;;0.35;43.52
74881;BME280;63427;49.654;6.596;2024-01-15T02:38:19;98768.73;;;0.07;43.88
74881;BME280;63427;49.654;6.596;2024-01-15T02:40:44;98774.09;;;-0.42;45.21
74881;BME280;63427;49.654;6.596;2024-01-15T02:43:09;98775.96;;;0.08;44.08
74881;BME280;63427;49.654;6.596;2024-01-15T02:45:35;98775.67;;;0.34;43.64
74881;BME280;63427;49.654;6.596;2024-01-15T02:48:00;98775.43;;;1.00;43.01
74881;BME280;63427;49.654;6.596;2024-01-15T02:50:25;98776.81;;;0.75;42.99
74881;BME280;63427;49.654;6.596;2024-01-15T02:52:50;98770.49;;;0.51;43.31
74881;BME280;63427;49.654;6.596;2024-01-15T02:55:16;98778.72;;;0.71;43.21
74881;BME280;63427;49.654;6.596;2024-01-15T02:57:41;98780.44;;;-0.13;44.59
74881;BME280;63427;49.654;6.596;2024-01-15T03:00:08;98769.27;;;0.39;44.39
74881;BME280;63427;49.654;6.596;2024-01-15T03:02:33;98770.61;;;-0.08;45.31
74881;BME280;63427;49.654;6.596;2024-01-15T03:04:58;98763.60;;;0.31;44.32
74881;BME280;63427;49.654;6.596;2024-01-15T03:07:23;98750.16;;;0.03;44.50
74881;BME280;63427;49.654;6.596;2024-01-15T03:09:52;98743.17;;;0.66;43.86
74881;BME280;63427;49.654;6.596;2024-01-15T03:12:15;98767.86;;;0.74;42.72
74881;BME280;63427;49.654;6.596;2024-01-15T03:14:41;98768.30;;;0.90;42.75
74881;BME280;63427;49.654;6.596;2024-01-15T03:17:07;98762.41;;;1.17;42.12
74881;BME280;63427;49.654;6.596;2024-01-15T05:42:32;98622.90;;;2.25;40.71
74881;BME280;63427;49.654;6.596;2024-01-15T05:44:57;98619.22;;;2.42;40.76
74881;BME280;63427;49.654;6.596;2024-01-15T05:47:22;98611.40;;;2.33;41.06
74881;BME280;63427;49.654;6.596;2024-01-15T05:49:48;98608.98;;;1.95;41.24
74881;BME280;63427;49.654;6.596;2024-01-15T05:52:13;98608.39;;;2.38;41.02
74881;BME280;63427;49.654;6.596;2024-01-15T05:54:38;98611.65;;;1.93;41.87
74881;BME280;63427;49.654;6.596;2024-01-15T05:57:04;98608.07;;;1.95;41.98
74881;BME280;63427;49.654;6.596;2024-01-15T05:59:29;98601.71;;;1.06;43.16
74881;BME280;63427;49.654;6.596;2024-01-15T06:01:54;98596.56;;;1.85;42.63
74881;BME280;63427;49.654;6.596;2024-01-15T06:04:19;98593.44;;;1.18;42.84
74881;BME280;63427;49.654;6.596;2024-01-15T06:06:45;98595.50;;;2.31;41.76
74881;BME280;63427;49.654;6.596;2024-01-15T06:09:11;98604.13;;;1.62;42.55
74881;BME280;63427;49.654;6.596;2024-01-15T06:11:35;98599.64;;;1.81;42.09
74881;BME280;63427;49.654;6.596;2024-01-15T06:16:26;98608.50;;;1.62;42.27
74881;BME280;63427;49.654;6.596;2024-01-15T06:43:06;98591.38;;;1.85;42.02
74881;BME280;63427;49.654;6.596;2024-01-15T07:41:17;98571.49;;;1.91;41.74
74881;BME280;63427;49.654;6.596;2024-01-15T08:10:21;98593.97;;;1.66;41.95
74881;BME280;63427;49.654;6.596;2024-01-15T08:12:46;98599.71;;;1.49;42.81
74881;BME280;63427;49.654;6.596;2024-01-15T08:46:42;98594.82;;;2.51;40.37
74881;BME280;63427;49.654;6.596;2024-01-15T08:49:08;98593.87;;;2.85;40.32
74881;BME280;63427;49.654;6.596;2024-01-15T20:48:52;99103.75;;;4.95;33.59
74881;BME280;63427;49.654;6.596;2024-01-15T20:51:17;99111.84;;;5.12;33.92
74881;BME280;63427;49.654;6.596;2024-01-15T20:53:42;99113.16;;;5.23;33.90
74881;BME280;63427;49.654;6.596;2024-01-15T20:56:09;99106.91;;;5.15;34.00
74881;BME280;63427;49.654;6.596;2024-01-15T20:58:33;99104.56;;;5.08;34.17
74881;BME280;63427;49.654;6.596;2024-01-15T21:00:58;99101.12;;;4.69;34.53
74881;BME280;63427;49.654;6.596;2024-01-15T21:03:23;99102.08;;;4.62;34.72
74881;BME280;63427;49.654;6.596;2024-01-15T21:05:48;99098.03;;;4.63;34.93
74881;BME280;63427;49.654;6.596;2024-01-15T21:08:15;99099.57;;;4.65;34.81
74881;BME280;63427;49.654;6.596;2024-01-15T21:10:39;99104.20;;;4.27;35.55
74881;BME280;63427;49.654;6.596;2024-01-15T21:13:05;99105.97;;;4.51;35.44
74881;BME280;63427;49.654;6.596;2024-01-15T21:15:30;99107.34;;;4.33;35.38
74881;BME280;63427;49.654;6.596;2024-01-15T21:17:55;99112.93;;;4.49;35.29
74881;BME280;63427;49.654;6.596;2024-01-15T21:20:21;99111.29;;;4.36;35.26
74881;BME280;63427;49.654;6.596;2024-01-15T21:22:46;99113.14;;;4.42;35.40
74881;BME280;63427;49.654;6.596;2024-01-15T21:25:12;99116.09;;;4.28;35.48
74881;BME280;63427;49.654;6.596;2024-01-15T21:27:38;99117.48;;;4.60;35.53
74881;BME280;63427;49.654;6.596;2024-01-15T21:30:03;99125.06;;;4.28;35.42
74881;BME280;63427;49.654;6.596;2024-01-15T21:32:27;99124.88;;;4.40;35.54
74881;BME280;63427;49.654;6.596;2024-01-15T21:34:52;99130.91;;;4.30;35.47
74881;BME280;63427;49.654;6.596;2024-01-15T21:37:18;99133.65;;;4.52;35.68
74881;BME280;63427;49.654;6.596;2024-01-15T21:39:43;99135.04;;;4.72;35.28
74881;BME280;63427;49.654;6.596;2024-01-15T21:42:09;99131.29;;;4.51;35.51
74881;BME280;63427;49.654;6.596;2024-01-15T21:44:34;99128.18;;;4.67;35.62
74881;BME280;63427;49.654;6.596;2024-01-15T21:47:00;99128.95;;;4.22;35.97
74881;BME280;63427;49.654;6.596;2024-01-15T21:49:25;99131.94;;;4.55;36.07
74881;BME280;63427;49.654;6.596;2024-01-15T21:51:52;99134.25;;;4.48;35.86
